Time;durP1;ratioP1;P1;durP2;ratioP2;P2;SDS_P1;SDS_P2;PMS_P1;PMS_P2;Temp;Humidity;BMP_temperature;BMP_pressure;BME280_temperature;BME280_humidity;BME280_pressure;Samples;Min_cycle;Max_cycle;Signal;HPM_P1;HPM_P2
2024/01/10 00:02:13;;;;;;;;;0.50;0.50;;;;;0.60;100.00;102343.09;5048839;28;45443;-94
2024/01/10 00:04:38;;;;;;;;;4.33;4.33;;;;;0.62;100.00;102345.72;5043806;28;67409;-95
2024/01/10 00:07:04;;;;;;;;;1.50;1.50;;;;;0.63;100.00;102339.75;5043287;28;45417;-95
2024/01/10 00:09:30;;;;;;;;;0.00;0.00;;;;;0.63;100.00;102347.44;5042617;28;46176;-95
2024/01/10 00:11:55;;;;;;;;;15.33;15.00;;;;;0.63;100.00;102342.31;5042517;28;55896;-94
2024/01/10 00:14:20;;;;;;;;;0.00;0.00;;;;;0.62;100.00;102338.03;5042621;28;57988;-95
2024/01/10 00:16:46;;;;;;;;;3.00;3.00;;;;;0.62;100.00;102338.03;5043183;28;64036;-95
2024/01/10 00:19:11;;;;;;;;;0.00;0.00;;;;;0.59;100.00;102336.19;5040588;28;49590;-94
2024/01/10 00:21:36;;;;;;;;;4.33;2.00;;;;;0.58;100.00;102331.91;5062720;28;73253;-95
2024/01/10 00:24:02;;;;;;;;;0.00;0.00;;;;;0.61;100.00;102341.38;5062875;28;44965;-95
2024/01/10 00:26:27;;;;;;;;;1.00;1.00;;;;;0.59;100.00;102338.75;5048243;28;56421;-94
2024/01/10 00:28:52;;;;;;;;;0.00;0.00;;;;;0.61;100.00;102341.38;5039569;28;72448;-95
2024/01/10 00:31:18;;;;;;;;;0.00;0.00;;;;;0.59;100.00;102336.19;5043556;28;62464;-94
2024/01/10 00:33:43;;;;;;;;;0.00;0.00;;;;;0.62;100.00;102340.59;5047420;28;55567;-95
2024/01/10 00:36:08;;;;;;;;;1.00;1.00;;;;;0.61;100.00;102338.81;5056030;28;55934;-95
2024/01/10 00:38:34;;;;;;;;;0.00;0.00;;;;;0.58;100.00;102335.34;5021290;28;70633;-95
2024/01/10 00:40:59;;;;;;;;;5.33;5.33;;;;;0.57;100.00;102331.00;5038173;28;72305;-94
2024/01/10 00:43:25;;;;;;;;;3.00;3.00;;;;;0.57;100.00;102325.88;5021912;28;55070;-93
2024/01/10 00:45:50;;;;;;;;;0.00;0.00;;;;;0.56;100.00;102320.72;5039137;28;45462;-94
2024/01/10 00:48:17;;;;;;;;;0.00;0.00;;;;;0.58;100.00;102324.22;5055868;28;47156;-95
2024/01/10 00:50:44;;;;;;;;;1.00;1.00;;;;;0.60;100.00;102326.84;5053484;28;45395;-95
2024/01/10 00:53:09;;;;;;;;;0.25;0.25;;;;;0.58;100.00;102327.66;5060313;28;45298;-94
2024/01/10 00:55:34;;;;;;;;;0.00;0.00;;;;;0.58;100.00;102319.97;5042458;28;45192;-94
2024/01/10 00:58:00;;;;;;;;;0.00;0.00;;;;;0.58;100.00;102317.38;5059639;28;58070;-94
2024/01/10 01:00:26;;;;;;;;;0.00;0.00;;;;;0.60;100.00;102317.47;5059253;28;45355;-94
2024/01/10 01:02:51;;;;;;;;;1.75;1.75;;;;;0.59;100.00;102313.13;5058991;28;45329;-95
2024/01/10 01:05:17;;;;;;;;;0.00;0.00;;;;;0.61;100.00;102316.63;5040965;28;62213;-95
2024/01/10 01:07:43;;;;;;;;;1.00;1.00;;;;;0.62;100.00;102310.69;5041897;28;46985;-96
2024/01/10 01:10:08;;;;;;;;;0.00;0.00;;;;;0.65;100.00;102312.47;5025399;28;45840;-94
2024/01/10 01:12:34;;;;;;;;;1.75;0.50;;;;;0.66;100.00;102319.38;5042407;28;45328;-94
2024/01/10 01:14:59;;;;;;;;;2.25;2.25;;;;;0.66;100.00;102309.97;5060213;28;45275;-94
2024/01/10 01:17:24;;;;;;;;;0.67;0.67;;;;;0.66;100.00;102315.09;5059863;28;45401;-94
2024/01/10 01:19:50;;;;;;;;;2.67;2.67;;;;;0.67;100.00;102308.28;5041232;28;72661;-94
2024/01/10 01:22:15;;;;;;;;;4.75;4.75;;;;;0.69;100.00;102314.38;5040885;28;45844;-94
2024/01/10 01:24:40;;;;;;;;;1.00;0.33;;;;;0.68;100.00;102297.22;5042065;28;66407;-94
2024/01/10 01:27:06;;;;;;;;;0.00;0.00;;;;;0.70;100.00;102303.28;5042131;28;60460;-95
2024/01/10 01:29:31;;;;;;;;;4.67;4.67;;;;;0.72;100.00;102311.91;5041698;28;75253;-95
2024/01/10 01:31:57;;;;;;;;;0.00;0.00;;;;;0.75;100.00;102309.47;5051108;28;45327;-95
2024/01/10 01:34:22;;;;;;;;;0.00;0.00;;;;;0.76;100.00;102309.53;5063313;28;45432;-94
2024/01/10 01:36:48;;;;;;;;;10.00;10.00;;;;;0.76;100.00;102303.50;5079240;28;58838;-94
2024/01/10 01:39:13;;;;;;;;;0.00;0.00;;;;;0.77;100.00;102311.25;5066722;28;45342;-95
2024/01/10 01:41:39;;;;;;;;;0.00;0.00;;;;;0.79;100.00;102310.44;5064125;28;45290;-94
2024/01/10 01:44:04;;;;;;;;;0.00;0.00;;;;;0.79;100.00;102311.31;5049891;28;45363;-92
2024/01/10 01:46:31;;;;;;;;;0.00;0.00;;;;;0.82;100.00;102310.53;5066762;28;57277;-94
2024/01/10 01:48:56;;;;;;;;;6.75;6.75;;;;;0.83;100.00;102317.44;5032693;28;45321;-94
2024/01/10 01:51:22;;;;;;;;;0.00;0.00;;;;;0.84;100.00;102306.38;5048258;28;66052;-94
2024/01/10 01:53:49;;;;;;;;;0.00;0.00;;;;;0.83;100.00;102305.47;5066783;28;45184;-94
2024/01/10 01:56:16;;;;;;;;;3.00;3.00;;;;;0.83;100.00;102312.31;5060574;28;45365;-95
2024/01/10 01:58:42;;;;;;;;;0.00;0.00;;;;;0.82;100.00;102314.00;5041448;28;45243;-95
2024/01/10 02:01:10;;;;;;;;;0.00;0.00;;;;;0.83;100.00;102314.88;5041088;28;62263;-95
2024/01/10 02:03:35;;;;;;;;;0.00;0.00;;;;;0.83;100.00;102309.72;5042221;28;45239;-95
2024/01/10 02:06:04;;;;;;;;;0.25;0.25;;;;;0.83;100.00;102305.47;5057969;28;46994;-95
2024/01/10 02:08:33;;;;;;;;;3.00;3.00;;;;;0.82;100.00;102301.19;5041687;28;45275;-95
2024/01/10 02:10:59;;;;;;;;;0.00;0.00;;;;;0.83;100.00;102296.91;5041442;28;45466;-95
2024/01/10 02:13:24;;;;;;;;;0.00;0.00;;;;;0.84;100.00;102302.09;5061679;28;45605;-94
2024/01/10 02:15:51;;;;;;;;;9.50;4.00;;;;;0.86;100.00;102302.16;5059144;28;46843;-95
2024/01/10 02:18:16;;;;;;;;;0.00;0.00;;;;;0.88;100.00;102308.22;5075015;28;45370;-95
2024/01/10 02:20:45;;;;;;;;;1.00;1.00;;;;;0.86;100.00;102303.03;5023769;28;58249;-94
2024/01/10 02:23:11;;;;;;;;;0.00;0.00;;;;;0.88;100.00;102301.38;5074379;28;45305;-94
2024/01/10 02:25:36;;;;;;;;;1.00;1.00;;;;;0.87;100.00;102294.50;5057089;28;46562;-95
2024/01/10 02:28:01;;;;;;;;;0.00;0.00;;;;;0.87;100.00;102296.19;5059186;28;45279;-95
2024/01/10 02:30:27;;;;;;;;;0.00;0.00;;;;;0.87;100.00;102301.34;5082098;27;68634;-95
2024/01/10 02:32:52;;;;;;;;;0.00;0.00;;;;;0.86;100.00;102294.47;5079098;28;45354;-95
2024/01/10 02:35:17;;;;;;;;;0.00;0.00;;;;;0.87;100.00;102289.38;5059455;28;73164;-95
2024/01/10 02:37:43;;;;;;;;;1.00;1.00;;;;;0.90;100.00;102293.75;5060224;28;64420;-95
2024/01/10 02:40:08;;;;;;;;;6.00;6.00;;;;;0.90;100.00;102296.31;5043964;28;45323;-93
2024/01/10 02:42:34;;;;;;;;;2.50;2.50;;;;;0.92;100.00;102292.13;5060852;28;45464;-94
2024/01/10 02:45:00;;;;;;;;;4.50;0.00;;;;;0.90;100.00;102292.06;5043869;28;46917;-93
2024/01/10 02:47:25;;;;;;;;;1.00;1.00;;;;;0.91;100.00;102291.25;5076289;27;74346;-95
2024/01/10 02:49:50;;;;;;;;;0.00;0.00;;;;;0.91;100.00;102295.50;5060904;28;45457;-94
2024/01/10 02:52:16;;;;;;;;;0.00;0.00;;;;;0.90;100.00;102292.06;5077972;28;45305;-95
2024/01/10 02:54:41;;;;;;;;;1.00;1.00;;;;;0.90;100.00;102288.63;5076822;28;61588;-94
2024/01/10 02:57:06;;;;;;;;;2.67;2.67;;;;;0.91;100.00;102290.34;5077826;28;67315;-95
2024/01/10 02:59:32;;;;;;;;;13.50;13.50;;;;;0.88;100.00;102280.88;5087696;28;45325;-94
2024/01/10 03:01:57;;;;;;;;;0.00;0.00;;;;;0.90;100.00;102274.13;5085434;28;70029;-89
2024/01/10 03:04:22;;;;;;;;;9.25;9.25;;;;;0.91;100.00;102278.44;5071982;27;45398;-95
2024/01/10 03:06:48;;;;;;;;;1.00;1.00;;;;;0.93;100.00;102275.94;5060326;28;67830;-95
2024/01/10 03:09:13;;;;;;;;;0.00;0.00;;;;;0.93;100.00;102281.91;5060322;28;52799;-95
2024/01/10 03:11:38;;;;;;;;;2.00;2.00;;;;;0.92;100.00;102277.59;5059801;28;62918;-94
2024/01/10 03:14:08;;;;;;;;;0.00;0.00;;;;;0.94;100.00;102275.09;5059752;28;71228;-95
2024/01/10 03:16:34;;;;;;;;;0.00;0.00;;;;;0.95;100.00;102274.28;5059977;28;45382;-94
2024/01/10 03:19:00;;;;;;;;;0.00;0.00;;;;;0.95;100.00;102275.16;5059958;28;45312;-94
2024/01/10 03:21:26;;;;;;;;;0.00;0.00;;;;;0.95;100.00;102280.28;5060455;28;45485;-95
2024/01/10 03:23:52;;;;;;;;;0.00;0.00;;;;;0.96;100.00;102276.88;5060472;28;47198;-94
2024/01/10 03:26:17;;;;;;;;;0.00;0.00;;;;;0.97;100.00;102275.22;5081435;28;45197;-93
2024/01/10 03:28:43;;;;;;;;;0.00;0.00;;;;;0.98;100.00;102276.94;5079969;28;45240;-95
2024/01/10 03:31:11;;;;;;;;;0.00;0.00;;;;;0.99;100.00;102272.72;5059525;28;55286;-95
2024/01/10 03:33:36;;;;;;;;;4.50;4.50;;;;;0.96;100.00;102266.63;5079056;28;46245;-94
2024/01/10 03:36:02;;;;;;;;;0.00;0.00;;;;;0.95;100.00;102267.47;5076455;28;45828;-95
2024/01/10 03:38:28;;;;;;;;;1.00;1.00;;;;;0.93;100.00;102274.22;5060768;28;45355;-95
2024/01/10 03:40:53;;;;;;;;;2.33;0.33;;;;;0.93;100.00;102274.22;5077563;28;70507;-94
2024/01/10 03:43:18;;;;;;;;;2.00;2.00;;;;;0.91;100.00;102265.63;5078246;28;68837;-94
2024/01/10 03:45:43;;;;;;;;;1.00;0.00;;;;;0.91;100.00;102263.06;5077372;28;49275;-94
2024/01/10 03:48:09;;;;;;;;;0.00;0.00;;;;;0.91;100.00;102268.19;5043164;28;67679;-94
2024/01/10 03:50:34;;;;;;;;;0.00;0.00;;;;;0.91;100.00;102265.63;5044311;28;72252;-94
2024/01/10 03:52:59;;;;;;;;;0.00;0.00;;;;;0.92;100.00;102269.91;5077755;28;62985;-94
2024/01/10 03:55:25;;;;;;;;;1.00;1.00;;;;;0.92;100.00;102262.22;5060023;28;75136;-94
2024/01/10 03:57:50;;;;;;;;;0.00;0.00;;;;;0.94;100.00;102265.69;5061777;28;45312;-94
2024/01/10 04:00:16;;;;;;;;;0.00;0.00;;;;;0.95;100.00;102272.59;5094449;28;69371;-93
2024/01/10 04:02:41;;;;;;;;;0.00;0.00;;;;;0.96;100.00;102266.63;5082433;28;45306;-93
2024/01/10 04:05:09;;;;;;;;;0.00;0.00;;;;;1.00;100.00;102266.75;5082372;28;67069;-94
2024/01/10 04:07:34;;;;;;;;;0.00;0.00;;;;;1.02;100.00;102267.66;5074866;28;45215;-95
2024/01/10 04:10:00;;;;;;;;;0.00;0.00;;;;;1.04;100.00;102271.16;5087117;28;67816;-94
2024/01/10 04:12:25;;;;;;;;;0.00;0.00;;;;;1.04;100.00;102264.34;5069937;28;47944;-94
2024/01/10 04:14:50;;;;;;;;;13.00;13.00;;;;;1.02;100.00;102255.72;5081707;28;68017;-95
2024/01/10 04:17:16;;;;;;;;;1.00;0.00;;;;;1.05;100.00;102252.41;5079584;28;67108;-94
2024/01/10 04:19:41;;;;;;;;;0.00;0.00;;;;;1.04;100.00;102253.19;5081304;28;45589;-94
2024/01/10 04:22:07;;;;;;;;;0.00;0.00;;;;;1.05;100.00;102252.41;5079586;28;50011;-95
2024/01/10 04:24:32;;;;;;;;;5.00;3.50;;;;;1.05;100.00;102253.25;5080197;28;45383;-95
2024/01/10 04:26:57;;;;;;;;;0.00;0.00;;;;;1.06;100.00;102254.13;5081636;28;45346;-95
2024/01/10 04:29:22;;;;;;;;;4.67;4.67;;;;;1.06;100.00;102242.19;5078992;28;72397;-95
2024/01/10 04:31:48;;;;;;;;;0.00;0.00;;;;;1.21;100.00;102252.09;5075770;28;68828;-95
2024/01/10 04:34:14;;;;;;;;;1.50;1.50;;;;;1.10;100.00;102248.31;5043461;28;45749;-94
2024/01/10 04:36:39;;;;;;;;;0.00;0.00;;;;;1.11;100.00;102244.91;5060397;28;52643;-95
2024/01/10 04:39:04;;;;;;;;;1.00;1.00;;;;;1.10;100.00;102241.47;5042232;28;56376;-95
2024/01/10 04:41:29;;;;;;;;;0.00;0.00;;;;;1.12;100.00;102241.53;5067503;27;55146;-94
2024/01/10 04:43:55;;;;;;;;;31.00;18.00;;;;;1.11;100.00;102240.63;5083425;28;74076;-94
2024/01/10 04:46:20;;;;;;;;;12.00;11.33;;;;;1.13;100.00;102241.59;5072067;28;60805;-94
2024/01/10 04:48:46;;;;;;;;;0.00;0.00;;;;;1.13;100.00;102236.47;5060643;28;45288;-94
2024/01/10 04:51:11;;;;;;;;;0.00;0.00;;;;;1.16;100.00;102236.53;5058347;28;76362;-94
2024/01/10 04:53:37;;;;;;;;;0.00;0.00;;;;;1.22;100.00;102229.88;5059358;28;45292;-95
2024/01/10 04:56:03;;;;;;;;;8.33;8.33;;;;;1.23;100.00;102235.06;5070944;27;62765;-95
2024/01/10 04:58:29;;;;;;;;;0.00;0.00;;;;;1.24;100.00;102231.66;5042921;28;45625;-94
2024/01/10 05:00:55;;;;;;;;;0.00;0.00;;;;;1.24;100.00;102229.09;5060557;28;46164;-95
2024/01/10 05:03:20;;;;;;;;;0.00;0.00;;;;;1.25;100.00;102227.44;5058445;28;66743;-95
2024/01/10 05:05:45;;;;;;;;;0.00;0.00;;;;;1.28;100.00;102230.06;5059923;28;61079;-95
2024/01/10 05:08:11;;;;;;;;;0.00;0.00;;;;;1.29;100.00;102222.44;5063333;28;45336;-93
2024/01/10 05:10:36;;;;;;;;;4.67;4.67;;;;;1.29;100.00;102226.69;5065848;28;45394;-95
2024/01/10 05:13:01;;;;;;;;;0.00;0.00;;;;;1.29;100.00;102236.97;5057266;28;71374;-94
2024/01/10 05:15:27;;;;;;;;;0.00;0.00;;;;;1.29;100.00;102231.84;5058450;28;62518;-94
2024/01/10 05:17:52;;;;;;;;;2.50;2.50;;;;;1.29;100.00;102227.56;5059847;28;45259;-95
2024/01/10 05:20:18;;;;;;;;;4.67;4.67;;;;;1.29;100.00;102229.28;5057877;28;75452;-94
2024/01/10 05:22:45;;;;;;;;;0.00;0.00;;;;;1.30;100.00;102233.56;5058232;28;64043;-95
2024/01/10 05:25:10;;;;;;;;;0.00;0.00;;;;;1.30;100.00;102228.44;5060113;28;45232;-96
2024/01/10 05:27:35;;;;;;;;;1.00;1.00;;;;;1.30;100.00;102219.06;5057599;28;70486;-95
2024/01/10 05:30:01;;;;;;;;;7.00;7.00;;;;;1.29;100.00;102226.69;5058121;28;74034;-95
2024/01/10 05:32:26;;;;;;;;;0.00;0.00;;;;;1.34;100.00;102220.03;5061013;28;72328;-95
2024/01/10 05:34:53;;;;;;;;;0.00;0.00;;;;;1.25;100.00;102225.72;5061524;28;59819;-94
2024/01/10 05:37:18;;;;;;;;;0.50;0.50;;;;;1.32;100.00;102219.13;5080019;28;45326;-95
2024/01/10 05:39:44;;;;;;;;;0.00;0.00;;;;;1.23;100.00;102223.94;5061808;28;47016;-94
2024/01/10 05:42:09;;;;;;;;;0.00;0.00;;;;;1.22;100.00;102228.19;5079329;28;56872;-94
2024/01/10 05:44:34;;;;;;;;;0.00;0.00;;;;;1.23;100.00;102224.81;5044251;28;45309;-94
2024/01/10 05:46:59;;;;;;;;;0.00;0.00;;;;;1.24;100.00;102228.25;5061935;28;65891;-94
2024/01/10 05:49:25;;;;;;;;;3.00;3.00;;;;;1.27;100.00;102224.09;5060565;28;74287;-94
2024/01/10 05:51:51;;;;;;;;;0.00;0.00;;;;;1.29;100.00;102222.44;5044828;28;45314;-95
2024/01/10 05:54:18;;;;;;;;;0.00;0.00;;;;;1.22;100.00;102220.50;5045147;28;45487;-94
2024/01/10 05:56:44;;;;;;;;;0.00;0.00;;;;;1.30;100.00;102223.31;5079408;28;45353;-94
2024/01/10 05:59:13;;;;;;;;;0.00;0.00;;;;;1.32;100.00;102219.97;5079337;28;67655;-94
2024/01/10 06:01:38;;;;;;;;;34.50;34.50;;;;;1.32;100.00;102214.00;5063148;28;45417;-94
2024/01/10 06:04:05;;;;;;;;;3.00;3.00;;;;;1.28;100.00;102213.00;5061536;28;45211;-94
2024/01/10 06:06:32;;;;;;;;;4.00;4.00;;;;;1.32;100.00;102214.00;5061362;28;45444;-95
2024/01/10 06:08:57;;;;;;;;;4.00;4.00;;;;;1.34;100.00;102218.34;5059708;28;47224;-95
2024/01/10 06:11:22;;;;;;;;;0.00;0.00;;;;;1.32;100.00;102214.84;5059040;28;45275;-95
2024/01/10 06:13:48;;;;;;;;;3.00;3.00;;;;;1.30;100.00;102218.16;5025016;28;62356;-94
2024/01/10 06:16:13;;;;;;;;;0.00;0.00;;;;;1.31;100.00;102217.38;5041320;28;64579;-94
2024/01/10 06:18:39;;;;;;;;;0.00;0.00;;;;;1.32;100.00;102217.41;5053202;28;47203;-94
2024/01/10 06:21:04;;;;;;;;;0.00;0.00;;;;;1.27;100.00;102215.53;5065015;28;45442;-93
2024/01/10 06:23:30;;;;;;;;;0.00;0.00;;;;;1.22;100.00;102223.06;5065641;28;45287;-94
2024/01/10 06:25:55;;;;;;;;;0.00;0.00;;;;;1.22;100.00;102220.50;5066938;28;45157;-94
2024/01/10 06:28:21;;;;;;;;;0.00;0.00;;;;;1.22;100.00;102220.50;5066193;28;46748;-94
2024/01/10 06:30:46;;;;;;;;;0.00;0.00;;;;;1.22;100.00;102214.50;5047156;28;45272;-94
2024/01/10 06:33:12;;;;;;;;;0.00;0.00;;;;;1.23;100.00;102216.25;5032764;28;45385;-95
2024/01/10 06:35:37;;;;;;;;;1.00;1.00;;;;;1.31;100.00;102207.97;5040970;28;70616;-94
2024/01/10 06:38:03;;;;;;;;;0.00;0.00;;;;;1.32;100.00;102204.59;5040281;28;46461;-94
2024/01/10 06:40:29;;;;;;;;;0.00;0.00;;;;;1.33;100.00;102208.88;5043121;28;45293;-96
2024/01/10 06:42:55;;;;;;;;;0.00;0.00;;;;;1.32;100.00;102211.44;5123589;22;45231;-95
2024/01/10 06:45:20;;;;;;;;;4.00;4.00;;;;;1.32;100.00;102201.16;5092479;27;45528;-92
2024/01/10 06:47:45;;;;;;;;;3.00;3.00;;;;;1.33;100.00;102213.16;5083527;27;76607;-94
2024/01/10 06:50:11;;;;;;;;;0.75;0.75;;;;;1.32;100.00;102211.44;5096849;27;45312;-93
2024/01/10 06:52:37;;;;;;;;;0.00;0.00;;;;;1.31;100.00;102207.97;5081252;27;45336;-93
2024/01/10 06:55:04;;;;;;;;;1.00;1.00;;;;;1.33;100.00;102211.44;5099104;27;45289;-92
2024/01/10 06:57:29;;;;;;;;;0.00;0.00;;;;;1.35;100.00;102211.50;5059924;28;48185;-93
2024/01/10 06:59:55;;;;;;;;;3.00;3.00;;;;;1.35;100.00;102216.63;5060486;28;45414;-93
2024/01/10 07:02:20;;;;;;;;;0.00;0.00;;;;;1.35;100.00;102211.50;5078005;28;65228;-93
2024/01/10 07:04:48;;;;;;;;;0.00;0.00;;;;;1.35;100.00;102219.19;5044307;28;65538;-93
2024/01/10 07:07:13;;;;;;;;;9.00;9.00;;;;;1.33;100.00;102213.16;5043560;28;47025;-86
2024/01/10 07:09:40;;;;;;;;;1.00;1.00;;;;;1.34;100.00;102220.91;5042261;28;45805;-86
2024/01/10 07:12:06;;;;;;;;;0.00;0.00;;;;;1.34;100.00;102223.47;5069753;28;45319;-87
2024/01/10 07:14:32;;;;;;;;;3.00;3.00;;;;;1.34;100.00;102225.16;5077245;28;45318;-86
2024/01/10 07:16:57;;;;;;;;;0.00;0.00;;;;;1.33;100.00;102221.72;5058458;28;75009;-86
2024/01/10 07:19:23;;;;;;;;;1.33;0.00;;;;;1.34;100.00;102228.59;5058218;28;65209;-87
2024/01/10 07:21:49;;;;;;;;;0.00;0.00;;;;;1.34;100.00;102230.31;5063353;28;45223;-89
2024/01/10 07:24:15;;;;;;;;;0.00;0.00;;;;;1.35;100.00;102226.91;5062434;28;45453;-88
2024/01/10 07:26:41;;;;;;;;;0.00;0.00;;;;;1.34;100.00;102220.03;5076270;27;47306;-90
2024/01/10 07:29:08;;;;;;;;;0.00;0.00;;;;;1.35;100.00;102224.31;5059555;28;45370;-86
2024/01/10 07:31:35;;;;;;;;;0.00;0.00;;;;;1.37;100.00;102224.38;5060190;28;45415;-87
2024/01/10 07:34:01;;;;;;;;;3.00;3.00;;;;;1.38;100.00;102221.00;5077590;28;45185;-87
2024/01/10 07:36:26;;;;;;;;;1.00;1.00;;;;;1.32;100.00;102222.56;5058908;28;45381;-85
2024/01/10 07:38:53;;;;;;;;;1.00;1.00;;;;;1.37;100.00;102225.25;5058250;28;45326;-86
2024/01/10 07:41:18;;;;;;;;;0.00;0.00;;;;;1.36;100.00;102238.91;5076438;28;45186;-86
2024/01/10 07:43:43;;;;;;;;;10.00;10.00;;;;;1.38;100.00;102233.84;5043463;28;45571;-85
2024/01/10 07:46:09;;;;;;;;;0.00;0.00;;;;;1.35;100.00;102227.75;5097347;27;45522;-86
2024/01/10 07:48:35;;;;;;;;;0.00;0.00;;;;;1.38;100.00;102239.84;5082328;27;45352;-90
2024/01/10 07:51:00;;;;;;;;;1.50;1.50;;;;;1.40;100.00;102229.63;5100647;27;45533;-86
2024/01/10 07:53:26;;;;;;;;;4.00;4.00;;;;;1.40;100.00;102233.06;5073744;27;62192;-87
2024/01/10 07:55:52;;;;;;;;;0.00;0.00;;;;;1.41;100.00;102233.91;5082078;27;46893;-88
2024/01/10 07:58:17;;;;;;;;;0.00;0.00;;;;;1.41;100.00;102232.25;5080790;27;45828;-86
2024/01/10 08:00:42;;;;;;;;;15.67;15.67;;;;;1.42;100.00;102240.81;5081404;27;64322;-85
2024/01/10 08:03:10;;;;;;;;;0.00;0.00;;;;;1.41;100.00;102237.38;5080751;27;45527;-86
2024/01/10 08:05:35;;;;;;;;;3.00;3.00;;;;;1.41;100.00;102252.78;5099708;27;45544;-87
2024/01/10 08:08:00;;;;;;;;;6.00;6.00;;;;;1.41;100.00;102247.66;5081151;27;66574;-87
2024/01/10 08:10:27;;;;;;;;;0.00;0.00;;;;;1.40;100.00;102240.75;5065337;27;45448;-93
2024/01/10 08:12:52;;;;;;;;;0.00;0.00;;;;;1.42;100.00;102249.38;5082759;27;45271;-92
2024/01/10 08:15:19;;;;;;;;;0.00;0.00;;;;;1.44;100.00;102252.00;5095602;27;46129;-95
2024/01/10 08:17:46;;;;;;;;;0.00;0.00;;;;;1.44;100.00;102246.88;5065115;27;45467;-96
2024/01/10 08:20:14;;;;;;;;;5.00;5.00;;;;;1.43;100.00;102248.56;5099872;27;45463;-94
2024/01/10 08:22:40;;;;;;;;;0.00;0.00;;;;;1.44;100.00;102258.00;5082983;27;45444;-94
2024/01/10 08:25:06;;;;;;;;;0.00;0.00;;;;;1.44;100.00;102247.72;5084184;27;45770;-95
2024/01/10 08:27:33;;;;;;;;;3.00;3.00;;;;;1.44;100.00;102255.41;5100848;27;45441;-87
2024/01/10 08:29:58;;;;;;;;;0.75;0.75;;;;;1.47;100.00;102258.09;5077925;27;45300;-87
2024/01/10 08:32:24;;;;;;;;;0.50;0.50;;;;;1.48;100.00;102259.81;5089914;27;45210;-89
2024/01/10 08:34:49;;;;;;;;;0.00;0.00;;;;;1.50;100.00;102259.88;5086906;27;46487;-87
2024/01/10 08:37:17;;;;;;;;;0.00;0.00;;;;;1.53;100.00;102260.84;5093629;27;68470;-96
2024/01/10 08:39:42;;;;;;;;;0.00;0.00;;;;;1.54;100.00;102252.34;5091687;27;45373;-92
2024/01/10 08:42:09;;;;;;;;;0.00;0.00;;;;;1.58;100.00;102252.44;5112127;27;44879;-94
2024/01/10 08:44:35;;;;;;;;;0.00;0.00;;;;;1.58;100.00;102248.19;5086084;27;47135;-87
2024/01/10 08:47:00;;;;;;;;;0.00;0.00;;;;;1.61;100.00;102261.09;5078290;27;45560;-88
2024/01/10 08:49:26;;;;;;;;;0.00;0.00;;;;;1.61;100.00;102261.09;5099188;27;45133;-86
2024/01/10 08:51:53;;;;;;;;;1.00;0.00;;;;;1.64;100.00;102260.34;5080458;27;45437;-88
2024/01/10 08:54:19;;;;;;;;;0.00;0.00;;;;;1.64;100.00;102266.34;5091453;27;46478;-86
2024/01/10 08:56:45;;;;;;;;;0.00;0.00;;;;;1.65;100.00;102267.22;5082462;27;45355;-85
2024/01/10 08:59:11;;;;;;;;;0.00;0.00;;;;;1.65;100.00;102262.06;5097258;27;45468;-85
2024/01/10 09:01:38;;;;;;;;;0.00;0.00;;;;;1.65;100.00;102262.06;5097363;27;45457;-85
2024/01/10 09:04:04;;;;;;;;;0.00;0.00;;;;;1.67;100.00;102266.47;5063718;27;47354;-85
2024/01/10 09:06:31;;;;;;;;;2.25;2.25;;;;;1.66;100.00;102266.41;5063747;27;45284;-89
2024/01/10 09:08:56;;;;;;;;;0.00;0.00;;;;;1.70;100.00;102268.25;5076943;27;45326;-86
2024/01/10 09:11:21;;;;;;;;;0.00;0.00;;;;;1.72;100.00;102266.59;5059346;28;45270;-86
2024/01/10 09:13:47;;;;;;;;;0.00;0.00;;;;;1.75;100.00;102269.25;5062620;27;74374;-86
2024/01/10 09:16:12;;;;;;;;;1.00;1.00;;;;;1.76;100.00;102270.13;5062670;27;63938;-87
2024/01/10 09:54:32;;;;;;;;;7.33;7.33;;;;;1.49;100.00;102268.44;6181793;22;1515141;-94
2024/01/10 09:57:47;;;;;;;;;0.00;0.00;;;;;1.64;100.00;102263.78;6191404;22;46198;-92
2024/01/10 10:00:16;;;;;;;;;0.00;0.00;;;;;1.84;100.00;102281.50;6197155;22;45322;-95
2024/01/10 10:03:18;;;;;;;;;;;;;;;;;;;;;
2024/01/10 10:06:20;;;;;;;;;;;;;;;;;;;;;
2024/01/10 10:08:45;;;;;;;;;0.75;0.75;;;;;2.09;100.00;102280.59;6216509;22;72748;-93
2024/01/10 10:11:14;;;;;;;;;3.75;3.75;;;;;2.17;100.00;102276.53;6195808;22;45488;-92
2024/01/10 10:13:41;;;;;;;;;3.00;3.00;;;;;2.22;100.00;102280.13;6191728;22;45462;-92
2024/01/10 10:16:12;;;;;;;;;0.00;0.00;;;;;2.26;100.00;102276.81;6217500;22;46573;-92
2024/01/10 10:18:37;;;;;;;;;0.00;0.00;;;;;2.35;100.00;102289.06;6218791;22;45816;-91
2024/01/10 10:21:10;;;;;;;;;0.00;0.00;;;;;2.38;100.00;102281.47;6219325;22;45465;-92
2024/01/10 10:23:37;;;;;;;;;0.00;0.00;;;;;2.44;100.00;102278.22;6193300;22;45252;-92
2024/01/10 10:26:19;;;;;;;;;4.00;4.00;;;;;2.44;100.00;102261.06;6218695;22;47319;-91
2024/01/10 10:28:46;;;;;;;;;0.00;0.00;;;;;2.54;100.00;102269.06;6217762;22;45241;-91
2024/01/10 10:31:11;;;;;;;;;0.00;0.00;;;;;2.59;100.00;102263.22;6218216;22;45350;-91
2024/01/10 10:33:37;;;;;;;;;0.75;0.75;;;;;2.64;100.00;102263.38;6193834;22;45498;-91
2024/01/10 10:36:06;;;;;;;;;0.50;0.50;;;;;2.65;100.00;102265.94;6217697;22;56445;-91
2024/01/10 10:38:34;;;;;;;;;0.00;0.00;;;;;2.70;100.00;102266.97;6218159;22;45316;-92
2024/01/10 10:41:00;;;;;;;;;0.00;0.00;;;;;2.72;100.00;102254.16;6217815;22;45216;-92
2024/01/10 10:43:25;;;;;;;;;1.00;1.00;;;;;2.79;100.00;102268.94;6187698;22;45545;-91
2024/01/10 10:45:51;;;;;;;;;1.00;1.00;;;;;2.77;100.00;102265.44;6153363;22;46826;-92
2024/01/10 10:48:23;;;;;;;;;0.00;0.00;;;;;2.77;100.00;102251.69;6188571;22;45267;-91
2024/01/10 10:51:07;;;;;;;;;0.00;0.00;;;;;2.87;100.00;102259.72;6189095;22;45333;-91
2024/01/10 10:53:35;;;;;;;;;0.00;0.00;;;;;2.97;100.00;102259.94;6212492;22;45345;-90
2024/01/10 10:56:03;;;;;;;;;0.00;0.00;;;;;3.07;100.00;102254.25;6181129;22;48232;-91
2024/01/10 10:58:35;;;;;;;;;1.25;1.25;;;;;3.16;100.00;102241.63;6180819;22;45503;-90
2024/01/10 11:01:05;;;;;;;;;0.00;0.00;;;;;3.22;100.00;102246.91;6179979;22;45297;-90
2024/01/10 11:03:31;;;;;;;;;0.00;0.00;;;;;3.26;100.00;102238.44;6207363;22;45347;-90
2024/01/10 11:05:58;;;;;;;;;0.00;0.00;;;;;3.37;100.00;102243.84;6179942;22;46681;-89
2024/01/10 11:08:24;;;;;;;;;3.00;3.00;;;;;3.41;100.00;102247.38;6156900;22;45195;-91
2024/01/10 11:10:50;;;;;;;;;5.25;5.25;;;;;3.47;100.00;102252.66;6157351;22;45429;-88
2024/01/10 11:13:26;;;;;;;;;0.00;0.00;;;;;3.56;100.00;102246.88;6182118;22;45665;-90
2024/01/10 11:16:26;;;;;;;;;0.00;0.00;;;;;3.68;100.00;102242.03;6181140;22;48267;-88
2024/01/10 11:19:14;;;;;;;;;0.00;0.00;;;;;3.77;100.00;102243.94;6181909;22;45441;-88
2024/01/10 11:21:48;;;;;;;;;0.00;0.00;;;;;3.83;100.00;102241.50;6182404;22;45262;-89
2024/01/10 11:24:14;;;;;;;;;0.00;0.00;;;;;3.90;100.00;102240.81;6208918;22;45470;-88
2024/01/10 11:26:39;;;;;;;;;4.00;1.00;;;;;3.96;100.00;102233.22;6179709;22;45551;-90
2024/01/10 11:29:08;;;;;;;;;0.00;0.00;;;;;4.05;100.00;102235.16;6181401;22;56452;-88
2024/01/10 11:31:34;;;;;;;;;1.00;1.00;;;;;4.07;100.00;102229.19;6183922;22;45459;-88
2024/01/10 11:34:13;;;;;;;;;0.00;0.00;;;;;4.11;100.00;102226.69;6184087;22;45400;-94
2024/01/10 11:37:30;;;;;;;;;0.00;0.00;;;;;4.09;100.00;102216.34;6159750;22;46713;-96
2024/01/10 11:40:14;;;;;;;;;0.00;0.00;;;;;4.21;100.00;102226.03;6063774;23;45985;-91
2024/01/10 11:46:23;;;;;;;;;1.00;1.00;;;;;4.14;100.00;102211.25;6059693;23;45292;-95
2024/01/10 11:48:59;;;;;;;;;0.00;0.00;;;;;4.13;100.00;102209.53;6066037;23;46150;-95
2024/01/10 11:51:25;;;;;;;;;0.00;0.00;;;;;4.15;100.00;102208.72;6035320;23;45292;-92
2024/01/10 11:53:52;;;;;;;;;1.50;1.50;;;;;4.25;100.00;102218.41;6037111;23;45315;-94
2024/01/10 11:56:18;;;;;;;;;3.00;3.00;;;;;4.29;100.00;102215.88;6138869;23;45406;-95
2024/01/10 11:59:15;;;;;;;;;0.00;0.00;;;;;4.36;100.00;102215.16;6135958;23;47111;-94
2024/01/10 12:05:04;;;;;;;;;0.75;0.75;;;;;4.56;100.00;102215.56;6000013;23;45349;-88
2024/01/10 12:07:59;;;;;;;;;2.00;0.25;;;;;4.60;100.00;102210.47;5975492;23;45433;-91
2024/01/10 12:10:26;;;;;;;;;0.00;0.00;;;;;4.60;100.00;102200.16;6137212;23;46321;-89